Time;durP1;ratioP1;P1;durP2;ratioP2;P2;SDS_P1;SDS_P2;PMS_P1;PMS_P2;Temp;Humidity;BMP_temperature;BMP_pressure;BME280_temperature;BME280_humidity;BME280_pressure;Samples;Min_cycle;Max_cycle;Signal;HPM_P1;HPM_P2
2021/11/30 00:01:38;;;;;;;19.00;10.07;;;3.30;99.90;;;;;;4951032;29;20182;-83
2021/11/30 00:04:06;;;;;;;8.98;6.97;;;5.40;99.90;;;;;;4951404;29;20176;-82
2021/11/30 00:06:36;;;;;;;11.70;7.80;;;4.70;99.90;;;;;;4950676;29;20174;-83
2021/11/30 00:11:56;;;;;;;10.18;8.85;;;4.30;99.90;;;;;;4950595;29;20441;-83
2021/11/30 00:14:22;;;;;;;7.63;7.03;;;4.30;99.90;;;;;;4949402;29;20175;-83
2021/11/30 00:16:47;;;;;;;11.90;9.03;;;4.20;99.90;;;;;;4948897;29;20551;-83
2021/11/30 00:19:19;;;;;;;8.10;7.30;;;4.30;99.90;;;;;;4948944;29;20426;-82
2021/11/30 00:21:45;;;;;;;13.82;8.45;;;3.90;99.90;;;;;;4948617;29;20182;-83
2021/11/30 00:24:11;;;;;;;14.80;8.27;;;3.70;99.90;;;;;;4950040;29;20167;-82
2021/11/30 00:26:37;;;;;;;7.23;5.67;;;;;;;;;;4950014;29;20171;-83
2021/11/30 00:29:02;;;;;;;9.05;8.13;;;4.20;99.90;;;;;;4948338;29;20404;-84
2021/11/30 00:31:28;;;;;;;13.60;8.30;;;6.60;99.90;;;;;;4964362;28;20210;-83
2021/11/30 00:33:54;;;;;;;11.07;8.70;;;;;;;;;;4948455;29;20182;-84
2021/11/30 00:36:20;;;;;;;13.20;7.85;;;4.30;99.90;;;;;;4948697;29;20178;-83
2021/11/30 00:38:49;;;;;;;6.82;6.22;;;3.10;99.90;;;;;;4963238;28;20294;-83
2021/11/30 00:41:18;;;;;;;8.23;7.43;;;4.30;99.90;;;;;;4949363;29;20580;-82
2021/11/30 00:43:44;;;;;;;12.48;9.63;;;5.60;99.90;;;;;;4947921;29;20611;-83
2021/11/30 00:46:21;;;;;;;10.03;8.50;;;5.30;99.90;;;;;;4948335;29;20653;-83
2021/11/30 00:48:56;;;;;;;12.93;11.10;;;5.70;99.90;;;;;;4945766;28;20305;-84
2021/11/30 00:51:23;;;;;;;13.25;8.95;;;4.60;99.90;;;;;;4947912;29;20212;-83
2021/11/30 00:53:50;;;;;;;13.18;10.02;;;4.20;99.90;;;;;;4947825;29;20264;-82
2021/11/30 00:56:28;;;;;;;11.85;10.65;;;6.20;99.90;;;;;;4947926;29;20511;-83
2021/11/30 00:58:54;;;;;;;9.18;8.20;;;4.40;99.90;;;;;;4947554;29;20699;-83
2021/11/30 01:01:20;;;;;;;6.37;5.83;;;6.70;99.90;;;;;;4947990;29;20214;-83
2021/11/30 01:03:46;;;;;;;11.20;9.75;;;4.80;99.90;;;;;;4948659;29;20418;-82
2021/11/30 01:06:12;;;;;;;12.93;11.60;;;4.00;99.90;;;;;;4949486;29;20167;-84
2021/11/30 01:08:44;;;;;;;13.27;12.03;;;5.70;99.90;;;;;;4949009;29;20171;-84
2021/11/30 01:11:12;;;;;;;15.07;9.85;;;4.50;99.90;;;;;;4947586;29;20225;-84
2021/11/30 01:13:38;;;;;;;8.07;7.32;;;4.10;99.90;;;;;;4947606;29;20191;-83
2021/11/30 01:16:04;;;;;;;7.10;6.40;;;4.00;99.90;;;;;;4948987;29;20221;-82
2021/11/30 01:18:31;;;;;;;11.20;9.27;;;4.10;99.90;;;;;;4948235;29;20263;-82
2021/11/30 01:20:56;;;;;;;10.95;8.45;;;4.00;99.90;;;;;;4949101;28;20533;-82
2021/11/30 01:23:22;;;;;;;16.53;11.43;;;4.00;99.90;;;;;;4947755;29;20200;-82
2021/11/30 01:25:48;;;;;;;15.77;10.03;;;;;;;;;;4949163;29;20422;-82
2021/11/30 01:28:14;;;;;;;14.02;11.50;;;4.10;99.90;;;;;;4947521;29;20920;-82
2021/11/30 01:30:40;;;;;;;17.50;10.67;;;;;;;;;;4948891;29;20206;-82
2021/11/30 01:33:07;;;;;;;16.98;11.70;;;4.00;99.90;;;;;;4947577;29;20178;-82
2021/11/30 01:35:35;;;;;;;13.30;11.90;;;4.30;99.90;;;;;;4947525;29;20179;-83
2021/11/30 01:38:04;;;;;;;12.43;8.05;;;6.30;99.90;;;;;;4947933;29;20167;-82
2021/11/30 01:40:31;;;;;;;15.52;9.63;;;4.10;99.90;;;;;;4948263;29;20183;-82
2021/11/30 01:43:00;;;;;;;17.55;9.27;;;;;;;;;;4968491;28;20261;-83
2021/11/30 01:50:33;;;;;;;14.18;10.50;;;4.10;99.90;;;;;;4973232;28;20251;-82
2021/11/30 01:52:59;;;;;;;15.02;6.82;;;4.50;99.90;;;;;;4957370;28;20173;-83
2021/11/30 01:55:25;;;;;;;13.13;8.10;;;4.90;99.90;;;;;;4956540;28;20185;-83
2021/11/30 01:57:54;;;;;;;9.63;8.60;;;4.60;99.90;;;;;;4954972;28;20696;-82
2021/11/30 02:00:21;;;;;;;7.40;6.70;;;4.00;99.90;;;;;;4972122;28;20442;-83
2021/11/30 02:02:47;;;;;;;6.15;5.85;;;3.60;99.90;;;;;;4954488;28;20170;-83
2021/11/30 02:05:13;;;;;;;9.33;8.53;;;4.10;99.90;;;;;;4973004;28;20181;-83
2021/11/30 02:07:40;;;;;;;6.45;5.22;;;5.90;99.90;;;;;;4971527;28;20170;-81
2021/11/30 02:10:08;;;;;;;7.13;5.68;;;4.00;99.90;;;;;;4971702;28;20193;-83
2021/11/30 02:12:38;;;;;;;8.95;7.78;;;4.10;99.90;;;;;;4972013;28;20165;-84
2021/11/30 02:15:07;;;;;;;12.13;7.53;;;4.00;99.90;;;;;;4954185;28;20234;-83
2021/11/30 02:17:34;;;;;;;9.30;6.93;;;4.00;99.90;;;;;;4971301;28;20172;-83
2021/11/30 02:20:00;;;;;;;10.32;6.20;;;3.80;99.90;;;;;;4971374;28;20532;-83
2021/11/30 02:22:27;;;;;;;10.70;6.90;;;3.70;99.90;;;;;;4970136;28;20180;-84
2021/11/30 02:24:54;;;;;;;4.03;3.03;;;3.70;99.90;;;;;;4970937;28;20174;-84
2021/11/30 02:27:21;;;;;;;6.10;5.55;;;3.60;99.90;;;;;;4970716;28;20177;-82
2021/11/30 02:29:47;;;;;;;6.95;5.90;;;3.70;99.90;;;;;;4937549;28;20178;-82
2021/11/30 02:32:13;;;;;;;10.10;6.45;;;3.70;99.90;;;;;;4953533;28;20232;-82
2021/11/30 02:34:39;;;;;;;6.93;4.90;;;3.60;99.90;;;;;;4971075;28;20174;-82
2021/11/30 02:37:06;;;;;;;6.70;5.57;;;3.50;99.90;;;;;;4971100;28;20173;-82
2021/11/30 02:39:34;;;;;;;17.25;6.85;;;3.40;99.90;;;;;;4971221;28;20555;-83
2021/11/30 02:42:03;;;;;;;9.57;6.00;;;3.40;99.90;;;;;;4971268;28;20677;-82
2021/11/30 02:44:29;;;;;;;3.30;3.00;;;3.40;99.90;;;;;;4971147;28;20209;-82
2021/11/30 02:47:10;;;;;;;7.10;4.95;;;3.90;99.90;;;;;;4972284;28;20491;-82
2021/11/30 02:49:39;;;;;;;12.70;5.05;;;3.30;99.90;;;;;;4954237;28;20267;-82
2021/11/30 02:52:10;;;;;;;7.13;5.28;;;3.20;99.90;;;;;;4972031;28;20213;-82
2021/11/30 02:54:41;;;;;;;6.95;4.57;;;3.20;99.90;;;;;;4954464;28;20178;-81
2021/11/30 02:57:07;;;;;;;6.43;5.50;;;5.30;99.90;;;;;;4955352;28;20185;-82
2021/11/30 02:59:35;;;;;;;6.50;4.93;;;2.90;99.90;;;;;;4973761;28;20224;-83
2021/11/30 03:02:11;;;;;;;6.88;5.15;;;2.90;99.90;;;;;;4973137;28;20498;-82
2021/11/30 03:04:37;;;;;;;10.77;6.45;;;3.10;99.90;;;;;;4956403;28;20357;-83
2021/11/30 03:07:03;;;;;;;9.00;7.30;;;2.90;99.90;;;;;;4958330;28;20697;-83
2021/11/30 03:09:29;;;;;;;8.88;4.68;;;5.50;99.90;;;;;;4977933;28;20185;-81
2021/11/30 03:11:58;;;;;;;8.50;7.20;;;3.00;99.90;;;;;;4959370;28;20651;-84
2021/11/30 03:14:27;;;;;;;7.00;5.50;;;4.70;99.90;;;;;;4960473;28;20174;-84
2021/11/30 03:16:53;;;;;;;7.60;6.70;;;2.90;99.90;;;;;;4975493;28;20727;-82
2021/11/30 03:19:19;;;;;;;6.57;5.97;;;2.90;99.90;;;;;;4960454;28;20205;-83
2021/11/30 03:21:46;;;;;;;7.20;6.50;;;2.20;99.90;;;;;;4977347;28;20416;-83
2021/11/30 03:24:13;;;;;;;8.73;6.70;;;2.50;99.90;;;;;;4977351;28;20425;-82
2021/11/30 03:26:39;;;;;;;7.00;4.80;;;2.50;99.90;;;;;;4984075;28;20193;-83
2021/11/30 03:29:08;;;;;;;6.30;5.80;;;3.30;99.90;;;;;;4966568;28;20269;-83
2021/11/30 03:34:07;;;;;;;6.07;5.45;;;2.80;99.90;;;;;;4985474;28;20194;-83
2021/11/30 03:36:35;;;;;;;8.68;7.43;;;3.00;99.90;;;;;;4969434;28;20185;-83
2021/11/30 03:39:05;;;;;;;3.90;3.80;;;2.60;99.90;;;;;;4988318;28;20253;-83
2021/11/30 03:41:34;;;;;;;5.78;5.38;;;2.60;99.90;;;;;;4987297;28;20182;-82
2021/11/30 03:44:01;;;;;;;9.77;5.20;;;3.70;99.90;;;;;;4965148;28;20182;-83
2021/11/30 03:46:28;;;;;;;6.85;6.20;;;2.60;99.90;;;;;;4983417;28;20166;-83
2021/11/30 03:48:54;;;;;;;3.83;3.58;;;2.70;99.90;;;;;;4968641;28;20226;-83
2021/11/30 03:51:27;;;;;;;6.95;5.10;;;2.70;99.90;;;;;;4996207;28;20285;-83
2021/11/30 03:53:53;;;;;;;6.00;5.50;;;2.20;99.90;;;;;;4976743;28;20263;-83
2021/11/30 03:56:23;;;;;;;5.40;5.00;;;2.60;99.90;;;;;;4974164;28;20178;-83
2021/11/30 03:58:50;;;;;;;4.38;4.03;;;2.40;99.90;;;;;;4974956;28;20237;-82
2021/11/30 04:01:16;;;;;;;5.93;5.50;;;3.00;99.90;;;;;;4994631;28;20166;-83
2021/11/30 04:03:42;;;;;;;7.73;5.97;;;2.30;99.90;;;;;;4976767;28;20185;-82
2021/11/30 04:06:08;;;;;;;5.60;5.15;;;2.40;99.90;;;;;;4978263;28;20165;-83
2021/11/30 04:08:37;;;;;;;4.70;4.50;;;2.70;99.90;;;;;;4993005;28;20190;-83
2021/11/30 04:11:03;;;;;;;6.35;5.78;;;2.70;99.90;;;;;;4977864;28;20226;-83
2021/11/30 04:13:29;;;;;;;2.60;2.60;;;2.70;99.90;;;;;;4995953;28;20174;-83
2021/11/30 04:15:55;;;;;;;2.83;2.70;;;2.50;99.90;;;;;;4994005;28;20189;-83
2021/11/30 04:18:20;;;;;;;6.30;5.90;;;2.80;99.90;;;;;;4972357;28;20170;-83
2021/11/30 04:20:46;;;;;;;5.63;5.13;;;2.90;99.90;;;;;;4990679;28;20209;-83
2021/11/30 04:23:14;;;;;;;5.37;5.00;;;3.10;99.90;;;;;;4988700;28;20168;-83
2021/11/30 04:25:40;;;;;;;3.72;3.47;;;2.60;99.90;;;;;;4985768;28;20189;-83
2021/11/30 04:28:06;;;;;;;5.33;4.83;;;;;;;;;;4986426;28;20158;-83
2021/11/30 04:30:34;;;;;;;5.13;4.80;;;3.00;99.90;;;;;;4990078;28;20488;-83
2021/11/30 04:32:59;;;;;;;4.03;3.83;;;3.40;99.90;;;;;;4968541;28;20409;-83
2021/11/30 04:35:26;;;;;;;3.90;3.80;;;;;;;;;;4969882;28;20286;-82
2021/11/30 04:37:54;;;;;;;6.18;4.82;;;3.40;99.90;;;;;;4985893;28;20167;-83
2021/11/30 04:40:20;;;;;;;2.80;2.65;;;5.20;99.90;;;;;;4970499;28;20667;-83
2021/11/30 04:42:49;;;;;;;7.60;6.90;;;3.60;99.90;;;;;;4988061;28;20204;-84
2021/11/30 04:45:24;;;;;;;5.03;4.82;;;2.80;99.90;;;;;;4986302;28;20193;-84
2021/11/30 04:47:53;;;;;;;7.07;6.50;;;3.60;99.90;;;;;;4980348;28;20251;-83
2021/11/30 04:50:34;;;;;;;4.78;4.55;;;4.00;99.90;;;;;;4980961;28;20209;-82
2021/11/30 04:53:01;;;;;;;5.05;4.85;;;3.70;99.90;;;;;;4967456;28;20174;-82
2021/11/30 04:55:30;;;;;;;7.75;4.60;;;3.20;99.90;;;;;;4981812;28;20487;-83
2021/11/30 04:58:05;;;;;;;8.20;7.45;;;3.90;99.90;;;;;;4981666;28;20166;-82
2021/11/30 05:00:35;;;;;;;7.95;7.25;;;5.10;99.90;;;;;;4963582;28;20169;-83
2021/11/30 05:03:01;;;;;;;8.30;7.65;;;2.50;99.90;;;;;;4965032;28;20158;-83
2021/11/30 05:05:27;;;;;;;9.98;6.07;;;4.10;99.90;;;;;;4958696;28;20170;-83
2021/11/30 05:07:53;;;;;;;5.93;5.47;;;7.70;99.90;;;;;;4976392;28;20292;-82
2021/11/30 05:10:19;;;;;;;6.40;5.93;;;4.80;99.90;;;;;;4958215;28;20320;-83
2021/11/30 05:12:46;;;;;;;4.03;3.63;;;5.60;99.90;;;;;;4957527;28;20660;-82
2021/11/30 05:15:13;;;;;;;6.75;5.80;;;5.90;99.90;;;;;;4956239;28;20205;-83
2021/11/30 05:17:38;;;;;;;7.05;6.45;;;4.10;99.90;;;;;;4970811;28;20170;-83
2021/11/30 05:20:05;;;;;;;4.67;4.50;;;6.80;99.90;;;;;;4971631;28;20253;-83
2021/11/30 05:22:31;;;;;;;7.20;5.10;;;5.80;99.90;;;;;;4969602;28;20170;-83
2021/11/30 05:24:58;;;;;;;4.43;4.13;;;4.40;99.90;;;;;;4953129;28;20236;-78
2021/11/30 05:27:23;;;;;;;7.68;7.05;;;5.90;99.90;;;;;;4970666;28;20174;-83
2021/11/30 05:29:50;;;;;;;5.57;5.23;;;4.40;99.90;;;;;;4953657;28;20253;-83
2021/11/30 05:32:15;;;;;;;7.15;6.65;;;4.40;99.90;;;;;;4970795;28;20206;-83
2021/11/30 05:34:41;;;;;;;6.37;6.10;;;4.40;99.90;;;;;;4970226;28;20173;-83
2021/11/30 05:37:07;;;;;;;9.60;8.77;;;4.40;99.90;;;;;;4971383;28;20560;-79
2021/11/30 05:39:33;;;;;;;8.47;7.07;;;4.40;99.90;;;;;;4969645;28;20951;-83
2021/11/30 05:41:58;;;;;;;7.10;6.67;;;4.50;99.90;;;;;;4956556;28;20389;-83
2021/11/30 05:44:25;;;;;;;9.03;8.10;;;4.60;99.90;;;;;;4973799;28;20228;-82
2021/11/30 05:46:50;;;;;;;18.23;6.65;;;4.40;99.90;;;;;;4958139;28;20198;-84
2021/11/30 05:49:17;;;;;;;8.43;7.73;;;5.20;99.90;;;;;;5006800;23;20689;-83
2021/11/30 05:51:42;;;;;;;5.03;4.72;;;4.00;99.90;;;;;;4986658;28;20228;-81
2021/11/30 05:54:09;;;;;;;6.40;5.83;;;7.00;99.90;;;;;;4291299;28;10000721;-83
2021/11/30 05:56:34;;;;;;;3.85;3.70;;;5.70;99.90;;;;;;4946816;28;21048;-81
2021/11/30 05:59:00;;;;;;;4.00;3.80;;;4.70;99.90;;;;;;4946470;28;20268;-82
2021/11/30 06:01:32;;;;;;;6.20;5.87;;;4.70;99.90;;;;;;4963909;28;20445;-82
2021/11/30 06:03:59;;;;;;;4.85;4.65;;;6.70;99.90;;;;;;5003184;23;20487;-79
2021/11/30 06:06:27;;;;;;;4.07;3.97;;;4.80;99.90;;;;;;4981397;28;20178;-79
2021/11/30 06:08:53;;;;;;;5.93;5.57;;;3.90;99.90;;;;;;4982665;28;20662;-81
2021/11/30 06:11:19;;;;;;;5.33;5.03;;;4.80;99.90;;;;;;4981678;28;20223;-79
2021/11/30 06:13:45;;;;;;;4.70;4.50;;;4.80;99.90;;;;;;4981790;28;20178;-80
2021/11/30 06:16:11;;;;;;;5.75;5.32;;;4.80;99.90;;;;;;4981806;28;20188;-80
2021/11/30 06:18:36;;;;;;;5.80;5.50;;;4.40;99.90;;;;;;4983997;28;20169;-82
2021/11/30 06:21:05;;;;;;;5.73;5.30;;;4.90;99.90;;;;;;4982138;28;20177;-81
2021/11/30 06:23:31;;;;;;;5.53;5.22;;;4.80;99.90;;;;;;4983497;28;20726;-81
2021/11/30 06:25:56;;;;;;;3.73;3.63;;;6.00;99.90;;;;;;4981495;28;20268;-81
2021/11/30 06:28:22;;;;;;;5.90;5.53;;;5.00;99.90;;;;;;4983164;28;20172;-81
2021/11/30 06:30:51;;;;;;;6.80;6.30;;;4.30;99.90;;;;;;4980939;28;20619;-80
2021/11/30 06:33:22;;;;;;;5.65;5.35;;;5.10;99.90;;;;;;4982485;28;20208;-81
2021/11/30 06:35:48;;;;;;;6.85;6.35;;;5.10;99.90;;;;;;4981516;28;20344;-80
2021/11/30 06:38:14;;;;;;;6.40;6.00;;;6.40;99.90;;;;;;4985807;28;20447;-80
2021/11/30 06:40:39;;;;;;;4.70;4.50;;;5.00;99.90;;;;;;4984149;28;20205;-79
2021/11/30 06:43:05;;;;;;;7.03;6.53;;;5.00;99.90;;;;;;4985511;28;20230;-79
2021/11/30 06:45:31;;;;;;;6.20;5.70;;;5.10;99.90;;;;;;4986072;28;20169;-79
2021/11/30 06:47:56;;;;;;;9.30;8.50;;;5.20;99.90;;;;;;4987354;28;20224;-78
2021/11/30 06:50:22;;;;;;;9.83;8.97;;;5.20;99.90;;;;;;4989855;28;20232;-81
2021/11/30 06:52:54;;;;;;;8.07;7.40;;;5.30;99.90;;;;;;4991070;28;20540;-80
2021/11/30 06:55:20;;;;;;;9.43;8.63;;;5.30;99.90;;;;;;4989191;28;20227;-82
2021/11/30 06:57:46;;;;;;;4.37;4.17;;;5.30;99.90;;;;;;4991064;28;20177;-74
2021/11/30 07:00:15;;;;;;;9.77;8.97;;;5.30;99.90;;;;;;4993964;28;20424;-79
2021/11/30 07:02:45;;;;;;;9.00;8.10;;;5.50;99.90;;;;;;4998202;28;20682;-81
2021/11/30 07:15:59;;;;;;;6.70;6.10;;;5.70;99.90;;;;;;4989270;28;20324;-81
2021/11/30 07:18:27;;;;;;;10.60;9.50;;;5.70;99.90;;;;;;4989669;28;20256;-79
2021/11/30 07:20:53;;;;;;;11.95;9.18;;;5.70;99.90;;;;;;4990118;28;20170;-80
2021/11/30 07:23:19;;;;;;;11.38;10.27;;;5.80;99.90;;;;;;4988093;28;20181;-78
2021/11/30 07:25:52;;;;;;;9.00;7.05;;;5.90;99.90;;;;;;4988490;28;20627;-82
2021/11/30 07:28:28;;;;;;;12.45;11.25;;;8.50;99.90;;;;;;4987832;28;20188;-81
2021/11/30 07:30:55;;;;;;;10.70;9.60;;;;;;;;;;4624179;28;10000643;-79
2021/11/30 07:33:21;;;;;;;12.25;10.93;;;5.90;99.90;;;;;;4965336;28;20249;-80
2021/11/30 07:35:50;;;;;;;11.10;9.55;;;6.00;99.90;;;;;;4966759;28;20166;-80
2021/11/30 07:38:16;;;;;;;10.55;9.48;;;6.00;99.90;;;;;;4966606;28;20230;-80
2021/11/30 07:40:42;;;;;;;13.33;11.80;;;6.10;99.90;;;;;;4964489;28;20659;-80
2021/11/30 07:43:08;;;;;;;13.20;10.83;;;6.10;99.90;;;;;;4962101;28;20690;-82
2021/11/30 07:45:34;;;;;;;12.30;10.77;;;6.20;99.90;;;;;;4955701;28;20556;-81
2021/11/30 07:47:59;;;;;;;17.60;13.97;;;6.20;99.90;;;;;;4965127;28;20504;-80
2021/11/30 07:50:25;;;;;;;12.50;10.37;;;6.30;99.90;;;;;;4965514;28;20465;-80
2021/11/30 07:52:51;;;;;;;16.03;13.83;;;6.30;99.90;;;;;;4964455;28;20174;-80
2021/11/30 07:55:18;;;;;;;12.60;10.80;;;6.30;99.90;;;;;;4964287;28;20413;-80
2021/11/30 07:57:44;;;;;;;14.63;13.23;;;6.30;99.90;;;;;;4964342;28;20484;-80
2021/11/30 08:00:15;;;;;;;13.35;11.80;;;6.40;99.90;;;;;;4964000;28;20174;-81
2021/11/30 08:02:41;;;;;;;17.52;14.32;;;6.50;99.90;;;;;;4964109;28;20265;-79
2021/11/30 08:05:08;;;;;;;12.52;11.27;;;5.40;99.90;;;;;;4965207;28;20252;-82
2021/11/30 08:07:34;;;;;;;16.77;15.27;;;6.50;99.90;;;;;;4965377;28;20185;-81
2021/11/30 08:10:01;;;;;;;11.93;10.93;;;6.50;99.90;;;;;;4966232;28;20181;-80
2021/11/30 08:12:26;;;;;;;11.10;10.20;;;6.50;99.90;;;;;;4948610;28;20742;-81
2021/11/30 08:14:52;;;;;;;11.00;9.90;;;5.70;99.90;;;;;;4966681;28;20221;-82
2021/11/30 08:17:19;;;;;;;9.67;8.83;;;6.60;99.90;;;;;;4965482;28;20668;-82
2021/11/30 08:19:46;;;;;;;11.85;10.60;;;6.60;99.90;;;;;;4965100;28;20184;-81
2021/11/30 08:22:14;;;;;;;8.15;7.55;;;6.70;99.90;;;;;;4965279;28;20208;-80
2021/11/30 08:24:39;;;;;;;11.43;10.45;;;7.40;99.90;;;;;;4965486;28;20261;-81
2021/11/30 08:27:05;;;;;;;10.03;9.10;;;6.70;99.90;;;;;;4967494;28;20711;-82
2021/11/30 08:29:34;;;;;;;8.90;8.30;;;6.20;99.90;;;;;;4969080;28;20185;-81
2021/11/30 08:32:00;;;;;;;10.77;9.88;;;6.70;99.90;;;;;;4983895;28;20283;-80
2021/11/30 08:34:26;;;;;;;11.18;10.20;;;6.50;99.90;;;;;;4984716;28;20161;-80
2021/11/30 08:36:52;;;;;;;6.73;6.23;;;6.80;99.90;;;;;;4983511;28;20203;-81
2021/11/30 08:39:18;;;;;;;9.50;8.70;;;6.90;99.90;;;;;;4983323;28;20428;-80
2021/11/30 08:41:44;;;;;;;9.25;8.65;;;6.90;99.90;;;;;;4985546;28;20193;-82
2021/11/30 08:44:10;;;;;;;8.07;7.20;;;6.90;99.90;;;;;;4984354;28;20169;-75
2021/11/30 08:46:36;;;;;;;10.63;9.63;;;6.90;99.90;;;;;;4984243;28;20181;-84
2021/11/30 08:49:02;;;;;;;7.95;7.45;;;7.00;99.90;;;;;;4983809;28;20220;-78
2021/11/30 08:51:28;;;;;;;9.32;8.73;;;9.10;99.90;;;;;;4984321;28;20235;-80
2021/11/30 08:53:53;;;;;;;8.20;7.60;;;6.80;99.90;;;;;;4984652;28;20345;-82
2021/11/30 08:56:19;;;;;;;8.93;8.23;;;7.00;99.90;;;;;;4982151;28;20165;-78
2021/11/30 08:58:45;;;;;;;8.77;7.97;;;7.00;99.90;;;;;;4983003;28;20165;-79
2021/11/30 09:01:11;;;;;;;8.27;7.67;;;7.00;99.90;;;;;;4984241;28;20255;-80
2021/11/30 09:03:37;;;;;;;10.30;9.43;;;7.10;99.90;;;;;;4983448;28;20228;-82
2021/11/30 09:06:02;;;;;;;9.03;8.43;;;7.00;99.90;;;;;;4983499;28;20429;-79
2021/11/30 09:08:28;;;;;;;8.20;7.33;;;7.40;99.90;;;;;;4985347;28;20427;-80
2021/11/30 09:10:55;;;;;;;8.80;8.00;;;7.10;99.90;;;;;;4982418;28;20997;-81
2021/11/30 09:13:20;;;;;;;9.50;8.80;;;7.10;99.90;;;;;;4978526;28;20417;-81
2021/11/30 09:15:46;;;;;;;6.80;6.30;;;7.10;99.90;;;;;;4982986;28;20267;-79
2021/11/30 09:18:12;;;;;;;10.73;9.60;;;7.10;99.90;;;;;;4969854;28;20264;-78
2021/11/30 09:20:38;;;;;;;9.30;8.50;;;7.10;99.90;;;;;;4971952;28;20170;-80
2021/11/30 09:23:05;;;;;;;8.80;8.17;;;6.40;99.90;;;;;;4971728;28;20170;-81
2021/11/30 09:25:31;;;;;;;8.35;7.55;;;6.70;99.90;;;;;;4625322;28;10000951;-80
2021/11/30 09:28:01;;;;;;;8.30;7.70;;;7.10;99.90;;;;;;4946738;28;20617;-79
2021/11/30 09:30:28;;;;;;;5.55;5.15;;;7.20;99.90;;;;;;4945497;28;20210;-79
2021/11/30 09:32:54;;;;;;;7.53;7.15;;;7.20;99.90;;;;;;4945646;28;20175;-82
2021/11/30 09:35:23;;;;;;;4.32;4.07;;;7.20;99.90;;;;;;4945844;28;20181;-79
2021/11/30 09:37:51;;;;;;;6.28;5.85;;;7.30;99.90;;;;;;4944346;28;20187;-80
2021/11/30 09:40:20;;;;;;;4.38;4.18;;;7.30;99.90;;;;;;4945349;28;20175;-76
2021/11/30 09:42:48;;;;;;;6.13;5.90;;;7.40;99.90;;;;;;4949022;28;20245;-78
2021/11/30 09:45:15;;;;;;;5.85;5.65;;;8.10;99.90;;;;;;4951067;28;20514;-77
2021/11/30 09:47:45;;;;;;;6.40;6.10;;;7.40;99.90;;;;;;4950914;28;20436;-81
2021/11/30 09:50:15;;;;;;;5.72;5.20;;;7.40;99.90;;;;;;4953021;28;20174;-81
2021/11/30 09:52:41;;;;;;;6.43;6.03;;;7.90;99.90;;;;;;4952958;28;20179;-84
2021/11/30 09:55:12;;;;;;;7.53;7.03;;;7.50;99.90;;;;;;4972322;28;20326;-81
2021/11/30 09:57:38;;;;;;;8.02;7.55;;;9.00;99.90;;;;;;4953450;28;20189;-73
2021/11/30 10:00:07;;;;;;;8.77;8.02;;;7.50;99.90;;;;;;4954224;28;20179;-75
2021/11/30 10:02:33;;;;;;;16.10;10.80;;;7.50;99.90;;;;;;4954119;28;20684;-80
2021/11/30 10:04:59;;;;;;;7.30;6.70;;;7.50;99.90;;;;;;4952162;28;20329;-81
2021/11/30 10:07:56;;;;;;;6.30;6.00;;;7.20;99.90;;;;;;4952333;28;20501;-81
2021/11/30 10:10:30;;;;;;;7.10;6.60;;;7.60;99.90;;;;;;4952655;28;20703;-81
2021/11/30 10:13:00;;;;;;;5.97;5.47;;;7.60;99.90;;;;;;4954764;28;20553;-79
2021/11/30 10:15:27;;;;;;;6.50;6.13;;;7.30;99.90;;;;;;4956560;28;20178;-80
2021/11/30 10:18:54;;;;;;;7.63;7.13;;;8.40;99.90;;;;;;4956858;28;20193;-81
2021/11/30 10:21:24;;;;;;;6.57;6.07;;;7.60;99.90;;;;;;4950304;28;20270;-80
2021/11/30 10:23:55;;;;;;;7.28;6.90;;;7.70;99.90;;;;;;4952949;28;20249;-79
2021/11/30 10:26:24;;;;;;;6.50;6.07;;;7.70;99.90;;;;;;4954222;28;20553;-78
2021/11/30 10:28:59;;;;;;;6.70;5.85;;;7.70;99.90;;;;;;4956242;28;20645;-85
2021/11/30 10:31:32;;;;;;;7.75;7.35;;;7.80;99.90;;;;;;4954902;28;20723;-79
2021/11/30 10:33:59;;;;;;;6.70;6.35;;;7.80;99.90;;;;;;4954343;28;20242;-79
2021/11/30 10:36:25;;;;;;;7.60;7.13;;;7.80;99.90;;;;;;4953140;28;20174;-78
2021/11/30 10:39:40;;;;;;;7.30;6.70;;;8.30;99.90;;;;;;4954064;28;20178;-82
2021/11/30 10:42:33;;;;;;;8.13;6.20;;;7.90;99.90;;;;;;4966830;28;20187;-81
2021/11/30 10:44:59;;;;;;;8.30;7.82;;;8.00;99.90;;;;;;4957755;28;20183;-77
2021/11/30 10:47:27;;;;;;;7.17;6.43;;;8.30;99.90;;;;;;4949735;28;20713;-77
2021/11/30 10:50:11;;;;;;;5.05;4.72;;;7.90;99.90;;;;;;4952675;28;20178;-80
2021/11/30 10:52:43;;;;;;;6.18;5.88;;;8.00;99.90;;;;;;4959080;28;20200;-83
2021/11/30 10:55:15;;;;;;;6.47;5.97;;;8.00;99.90;;;;;;4963536;28;20281;-76
2021/11/30 10:57:42;;;;;;;5.43;5.23;;;8.00;99.90;;;;;;4950035;28;20249;-80
2021/11/30 11:00:19;;;;;;;4.95;4.65;;;7.60;99.90;;;;;;4956776;28;20453;-80
2021/11/30 11:03:02;;;;;;;6.07;5.77;;;8.20;99.90;;;;;;4953215;28;20265;-74
2021/11/30 11:05:36;;;;;;;6.15;5.85;;;8.10;99.90;;;;;;4959933;28;20425;-76
2021/11/30 11:08:10;;;;;;;7.47;7.07;;;8.20;99.90;;;;;;4959441;28;20170;-79
2021/11/30 11:10:48;;;;;;;5.65;5.35;;;8.20;99.90;;;;;;4956428;28;20215;-79
2021/11/30 11:13:38;;;;;;;6.68;6.18;;;8.20;99.90;;;;;;4953957;28;20179;-77
2021/11/30 11:16:24;;;;;;;4.80;4.60;;;8.20;99.90;;;;;;4622196;28;9999991;-77
2021/11/30 11:18:58;;;;;;;3.90;3.80;;;8.30;99.90;;;;;;4971884;28;21089;-79
2021/11/30 11:21:52;;;;;;;7.15;6.75;;;8.30;99.90;;;;;;4968900;28;20185;-74
2021/11/30 11:24:23;;;;;;;5.45;5.25;;;8.20;99.90;;;;;;4971605;28;20246;-78
2021/11/30 11:26:58;;;;;;;4.30;4.20;;;8.20;99.90;;;;;;4972200;28;20177;-78
2021/11/30 11:29:30;;;;;;;5.55;5.25;;;8.30;99.90;;;;;;4973063;28;20745;-78
2021/11/30 11:32:18;;;;;;;6.32;6.13;;;8.30;99.90;;;;;;4973201;28;20218;-78
2021/11/30 11:34:45;;;;;;;7.20;6.80;;;10.00;99.90;;;;;;4975219;28;20772;-79
2021/11/30 11:37:12;;;;;;;6.13;5.53;;;8.30;99.90;;;;;;4973071;28;20659;-80
2021/11/30 11:39:39;;;;;;;4.35;4.25;;;8.30;99.90;;;;;;4968733;28;20284;-77
2021/11/30 11:42:11;;;;;;;5.45;4.97;;;8.40;99.90;;;;;;4966705;28;20174;-77
2021/11/30 11:44:38;;;;;;;5.35;5.13;;;8.40;99.90;;;;;;4967857;28;20208;-77
2021/11/30 11:47:07;;;;;;;6.00;5.68;;;8.50;99.90;;;;;;4966761;28;20173;-81
2021/11/30 11:49:59;;;;;;;5.07;4.90;;;8.40;99.90;;;;;;4968749;28;20667;-76
2021/11/30 11:52:31;;;;;;;4.68;4.57;;;10.10;99.90;;;;;;4965559;28;20268;-82
2021/11/30 11:55:10;;;;;;;5.35;5.15;;;8.40;99.90;;;;;;4967177;28;20182;-82
2021/11/30 11:57:45;;;;;;;5.13;4.90;;;8.50;99.90;;;;;;4968147;28;20177;-79
2021/11/30 12:00:45;;;;;;;5.30;5.07;;;8.90;99.90;;;;;;4964005;28;20177;-79
2021/11/30 12:05:59;;;;;;;6.85;6.45;;;8.50;99.90;;;;;;4989275;28;20636;-77
2021/11/30 12:08:33;;;;;;;6.65;6.30;;;8.90;99.90;;;;;;4987565;28;20180;-75
2021/11/30 12:11:01;;;;;;;6.38;6.07;;;8.50;99.90;;;;;;4985575;28;20266;-80
2021/11/30 12:13:27;;;;;;;6.63;6.32;;;8.60;99.90;;;;;;4990406;28;20259;-82
2021/11/30 12:16:11;;;;;;;6.73;6.40;;;8.60;99.90;;;;;;5008042;28;20316;-80
2021/11/30 12:18:47;;;;;;;8.40;7.78;;;8.60;99.90;;;;;;4994432;28;20416;-82
2021/11/30 12:21:23;;;;;;;6.20;5.90;;;8.70;99.90;;;;;;5008907;28;20300;-77
2021/11/30 12:24:00;;;;;;;6.55;6.25;;;8.80;99.90;;;;;;4990230;28;20169;-79
2021/11/30 12:26:45;;;;;;;6.65;6.35;;;8.60;99.90;;;;;;4992224;28;20172;-81
2021/11/30 12:29:29;;;;;;;7.10;6.70;;;8.70;99.90;;;;;;4989931;28;20173;-76
2021/11/30 12:32:23;;;;;;;6.97;6.57;;;8.70;99.90;;;;;;4988660;28;20325;-80
2021/11/30 12:34:50;;;;;;;5.97;5.72;;;8.70;99.90;;;;;;4987415;28;20180;-74
2021/11/30 12:37:23;;;;;;;4.65;4.50;;;8.60;99.90;;;;;;4987663;28;20197;-74
2021/11/30 12:40:11;;;;;;;4.20;4.18;;;8.00;99.90;;;;;;4989738;28;20193;-80
2021/11/30 12:42:38;;;;;;;5.03;4.72;;;8.70;99.90;;;;;;4989625;28;20188;-79
2021/11/30 12:45:09;;;;;;;4.50;4.30;;;8.70;99.90;;;;;;4988348;28;20244;-78
2021/11/30 12:48:12;;;;;;;4.07;3.95;;;8.80;99.90;;;;;;4988402;28;20173;-74
2021/11/30 12:50:38;;;;;;;5.00;4.70;;;8.80;99.90;;;;;;4970084;28;20335;-80
2021/11/30 12:53:08;;;;;;;4.63;4.47;;;8.80;99.90;;;;;;4970863;28;20251;-81
2021/11/30 12:55:53;;;;;;;4.68;4.47;;;8.80;99.90;;;;;;4988128;28;20157;-77
2021/11/30 12:58:48;;;;;;;3.53;3.45;;;8.80;99.90;;;;;;4993027;28;20203;-79
2021/11/30 13:01:23;;;;;;;4.28;4.18;;;8.80;99.90;;;;;;5008405;28;20188;-81
2021/11/30 13:04:11;;;;;;;4.97;4.68;;;8.80;99.90;;;;;;5006843;28;20205;-81
2021/11/30 13:07:03;;;;;;;6.47;6.07;;;8.80;99.90;;;;;;5007360;28;20178;-78
2021/11/30 13:09:36;;;;;;;5.80;5.53;;;8.60;99.90;;;;;;4990596;28;20227;-81
2021/11/30 13:12:02;;;;;;;3.75;3.65;;;9.20;99.90;;;;;;4989201;28;20246;-78
2021/11/30 13:14:28;;;;;;;5.60;5.20;;;8.70;99.90;;;;;;5007085;28;20204;-78
2021/11/30 13:16:54;;;;;;;3.63;3.53;;;9.20;99.90;;;;;;5007187;28;20410;-79
2021/11/30 13:19:21;;;;;;;5.07;4.87;;;10.20;99.90;;;;;;5007215;28;20818;-81
2021/11/30 13:21:47;;;;;;;5.65;5.45;;;8.80;99.90;;;;;;4989164;28;20181;-80
2021/11/30 13:24:14;;;;;;;4.80;4.63;;;8.80;99.90;;;;;;5007504;28;20175;-79
2021/11/30 13:26:42;;;;;;;4.63;4.43;;;8.80;99.90;;;;;;4295881;28;10000708;-80
2021/11/30 13:29:20;;;;;;;6.18;5.97;;;9.80;99.90;;;;;;4983951;28;20181;-79
2021/11/30 13:32:21;;;;;;;4.60;4.30;;;8.80;99.90;;;;;;4984055;28;20328;-81